Terminal Aerodrome Forecast
Issued by NWS Chicago, IL

Home | Current Version | Previous Version | Graphics & Text | Print | Product List | Glossary On
Versions: 1 2 3 4 5 6 7 8 9 10 11 12 13 14 15 16 17 18 19 20 21 22 23 24 25 26 27 28 29 30 31 32 33 34 35 36 37
000
FTUS43 KLOT 191900 AAA
TAFRFD
TAF AMD
KRFD 191947Z 1920/2018 26012G19KT P6SM BKN035
     FM192200 27012G19KT P6SM SCT040
     FM200100 30006KT P6SM FEW040
     FM200800 30003KT 3SM BR SCT250
     FM201400 29009KT P6SM SCT250=

USA.gov is the U.S. government's official web portal to all federal, state and local government web resources and services.